Upstream stations:
SHEF ID: PLYK1 COTTONWOOD R NR PLYMOUTH, KS
STATION TYPE:
Regulating: Stage = 28.00, Flow = 11213
PRECIP STAGE STAGE(2) RIV-FLOW BAT-LOAD
in ft ft cfs volt
Ccp-Rev Ccp-Rev Ccp-Rev Ccp-Rev Ccp-Rev
(US/Central)
11/19 00:00 0.00 2.80 3.10 181 12.13
11/19 01:00 0.00 2.79 3.10 180 12.13
11/19 02:00 0.00 2.78 3.10 178 12.07
11/19 03:00 0.00 2.78 3.10 178 12.07
11/19 04:00 0.00 2.78 3.09 178 12.01
11/19 05:00 0.00 2.78 3.10 178 12.01
11/19 06:00 0.00 2.78 3.10 178 12.01
11/19 07:00 0.00 2.77 3.10 177 12.01
11/19 08:00 0.00 2.77 3.10 177 12.01
11/19 09:00 0.00 2.77 3.10 177 12.07
11/19 10:00 ---- 2.77 3.10 177 ----
11/19 11:00 0.00 2.76 3.11 175 12.54
11/19 12:00 0.00 2.73 3.11 171 12.54
11/19 13:00 0.00 2.74 3.11 173 12.60
11/19 14:00 0.00 2.75 3.11 174 12.54
11/19 15:00 0.00 2.76 3.11 175 12.42
11/19 16:00 0.00 2.75 3.10 174 12.36
11/19 17:00 0.00 2.76 3.10 175 12.30
11/19 18:00 0.00 2.75 3.10 174 12.24
11/19 19:00 0.00 2.74 3.10 173 12.19
11/19 20:00 0.00 2.74 3.10 173 12.19
11/19 21:00 0.00 2.74 3.10 173 12.13
11/19 22:00 0.00 2.74 3.11 173 12.13
11/19 23:00 0.00 2.74 3.11 173 12.07